sensor_id;sensor_type;location;lat;lon;timestamp;temperature;humidity
2543;DHT22;1116;51.502;7.414;2022-12-18T00:01:38;-6.90;54.30
2543;DHT22;1116;51.502;7.414;2022-12-18T00:04:15;-6.50;54.20
2543;DHT22;1116;51.502;7.414;2022-12-18T00:06:47;-6.90;53.90
2543;DHT22;1116;51.502;7.414;2022-12-18T00:09:20;-6.50;54.00
2543;DHT22;1116;51.502;7.414;2022-12-18T00:11:57;-6.90;52.40
2543;DHT22;1116;51.502;7.414;2022-12-18T00:14:42;-6.80;51.70
2543;DHT22;1116;51.502;7.414;2022-12-18T00:17:13;-7.00;52.30
2543;DHT22;1116;51.502;7.414;2022-12-18T00:19:46;-7.30;52.40
2543;DHT22;1116;51.502;7.414;2022-12-18T00:22:17;-7.50;52.40
2543;DHT22;1116;51.502;7.414;2022-12-18T00:24:53;-6.90;52.10
2543;DHT22;1116;51.502;7.414;2022-12-18T00:27:25;-7.00;51.70
2543;DHT22;1116;51.502;7.414;2022-12-18T00:29:57;-7.30;51.60
2543;DHT22;1116;51.502;7.414;2022-12-18T00:32:28;-7.00;52.40
2543;DHT22;1116;51.502;7.414;2022-12-18T00:35:01;-7.10;51.90
2543;DHT22;1116;51.502;7.414;2022-12-18T00:37:33;-7.10;52.30
2543;DHT22;1116;51.502;7.414;2022-12-18T00:40:09;-7.50;52.40
2543;DHT22;1116;51.502;7.414;2022-12-18T00:42:40;-7.10;50.90
2543;DHT22;1116;51.502;7.414;2022-12-18T00:45:23;-6.90;50.70
2543;DHT22;1116;51.502;7.414;2022-12-18T00:47:54;-6.80;50.00
2543;DHT22;1116;51.502;7.414;2022-12-18T00:50:26;-7.00;50.10
2543;DHT22;1116;51.502;7.414;2022-12-18T00:59:08;-7.00;55.70
2543;DHT22;1116;51.502;7.414;2022-12-18T01:01:39;-6.70;54.40
2543;DHT22;1116;51.502;7.414;2022-12-18T01:04:10;-7.50;52.00
2543;DHT22;1116;51.502;7.414;2022-12-18T01:06:41;-6.80;52.70
2543;DHT22;1116;51.502;7.414;2022-12-18T01:09:12;-6.80;52.10
2543;DHT22;1116;51.502;7.414;2022-12-18T01:11:43;-7.10;51.60
2543;DHT22;1116;51.502;7.414;2022-12-18T01:14:19;-6.80;52.60
2543;DHT22;1116;51.502;7.414;2022-12-18T01:16:49;-7.10;53.00
2543;DHT22;1116;51.502;7.414;2022-12-18T01:19:21;-7.30;51.40
2543;DHT22;1116;51.502;7.414;2022-12-18T01:21:52;-6.90;52.80
2543;DHT22;1116;51.502;7.414;2022-12-18T01:24:23;-7.80;50.50
2543;DHT22;1116;51.502;7.414;2022-12-18T01:26:53;-7.70;48.40
2543;DHT22;1116;51.502;7.414;2022-12-18T01:29:28;-7.20;48.80
2543;DHT22;1116;51.502;7.414;2022-12-18T01:31:59;-7.00;49.00
2543;DHT22;1116;51.502;7.414;2022-12-18T01:34:30;-7.40;51.40
2543;DHT22;1116;51.502;7.414;2022-12-18T01:37:02;-7.70;49.90
2543;DHT22;1116;51.502;7.414;2022-12-18T01:39:33;-6.90;51.50
2543;DHT22;1116;51.502;7.414;2022-12-18T01:42:11;-7.80;48.30
2543;DHT22;1116;51.502;7.414;2022-12-18T01:45:00;-7.00;47.20
2543;DHT22;1116;51.502;7.414;2022-12-18T01:47:35;-7.10;48.90
2543;DHT22;1116;51.502;7.414;2022-12-18T01:50:10;-7.50;50.70
2543;DHT22;1116;51.502;7.414;2022-12-18T01:52:42;-7.00;50.50
2543;DHT22;1116;51.502;7.414;2022-12-18T01:55:17;-7.00;49.70
2543;DHT22;1116;51.502;7.414;2022-12-18T01:57:49;-8.00;48.10
2543;DHT22;1116;51.502;7.414;2022-12-18T02:00:25;-7.50;48.50
2543;DHT22;1116;51.502;7.414;2022-12-18T02:02:57;-8.00;49.20
2543;DHT22;1116;51.502;7.414;2022-12-18T02:05:37;-7.90;49.10
2543;DHT22;1116;51.502;7.414;2022-12-18T02:08:20;-7.30;48.70
2543;DHT22;1116;51.502;7.414;2022-12-18T02:11:01;-7.90;49.50
2543;DHT22;1116;51.502;7.414;2022-12-18T02:13:41;-7.80;48.40
2543;DHT22;1116;51.502;7.414;2022-12-18T02:16:21;-7.80;49.10
2543;DHT22;1116;51.502;7.414;2022-12-18T02:18:57;-7.80;49.50
2543;DHT22;1116;51.502;7.414;2022-12-18T02:21:36;-7.30;50.30
2543;DHT22;1116;51.502;7.414;2022-12-18T02:24:17;-7.40;49.20
2543;DHT22;1116;51.502;7.414;2022-12-18T02:26:55;-7.70;48.30
2543;DHT22;1116;51.502;7.414;2022-12-18T10:02:48;-1.90;99.90
2543;DHT22;1116;51.502;7.414;2022-12-18T10:05:29;-2.00;99.90
2543;DHT22;1116;51.502;7.414;2022-12-18T10:08:08;-1.80;99.90
2543;DHT22;1116;51.502;7.414;2022-12-18T10:10:48;-1.80;99.90
2543;DHT22;1116;51.502;7.414;2022-12-18T10:13:24;-1.80;99.90
2543;DHT22;1116;51.502;7.414;2022-12-18T10:16:07;-1.70;99.90
2543;DHT22;1116;51.502;7.414;2022-12-18T10:19:08;-1.60;99.90
2543;DHT22;1116;51.502;7.414;2022-12-18T10:21:48;-1.50;98.50
2543;DHT22;1116;51.502;7.414;2022-12-18T10:24:28;-1.40;96.90
2543;DHT22;1116;51.502;7.414;2022-12-18T10:27:11;-0.90;93.10
2543;DHT22;1116;51.502;7.414;2022-12-18T10:29:44;-1.10;91.40
2543;DHT22;1116;51.502;7.414;2022-12-18T10:32:17;-1.10;91.90
2543;DHT22;1116;51.502;7.414;2022-12-18T10:34:54;-1.00;91.40
2543;DHT22;1116;51.502;7.414;2022-12-18T10:37:29;-0.60;93.20
2543;DHT22;1116;51.502;7.414;2022-12-18T10:40:11;-0.80;91.10
2543;DHT22;1116;51.502;7.414;2022-12-18T10:43:04;-0.70;90.50
2543;DHT22;1116;51.502;7.414;2022-12-18T10:45:35;-0.60;91.70
2543;DHT22;1116;51.502;7.414;2022-12-18T10:48:18;-0.50;91.40
2543;DHT22;1116;51.502;7.414;2022-12-18T10:50:52;-0.60;92.60
2543;DHT22;1116;51.502;7.414;2022-12-18T10:53:42;-0.50;93.30
2543;DHT22;1116;51.502;7.414;2022-12-18T10:56:13;-0.40;93.00
2543;DHT22;1116;51.502;7.414;2022-12-18T10:58:56;0.00;93.90
2543;DHT22;1116;51.502;7.414;2022-12-18T11:01:28;-0.10;93.40
2543;DHT22;1116;51.502;7.414;2022-12-18T11:04:09;-0.20;93.10
2543;DHT22;1116;51.502;7.414;2022-12-18T11:06:55;-0.10;94.50
2543;DHT22;1116;51.502;7.414;2022-12-18T11:12:16;0.00;93.80
2543;DHT22;1116;51.502;7.414;2022-12-18T11:14:49;0.10;93.00
2543;DHT22;1116;51.502;7.414;2022-12-18T11:17:22;0.20;91.50
2543;DHT22;1116;51.502;7.414;2022-12-18T11:19:56;0.30;90.20
2543;DHT22;1116;51.502;7.414;2022-12-18T11:22:32;0.60;87.60
2543;DHT22;1116;51.502;7.414;2022-12-18T11:25:05;0.70;90.80
2543;DHT22;1116;51.502;7.414;2022-12-18T11:27:59;0.40;89.90
2543;DHT22;1116;51.502;7.414;2022-12-18T11:30:32;0.50;88.10
2543;DHT22;1116;51.502;7.414;2022-12-18T11:33:11;0.90;87.00
2543;DHT22;1116;51.502;7.414;2022-12-18T11:35:51;0.60;85.70
2543;DHT22;1116;51.502;7.414;2022-12-18T11:38:28;0.70;89.10
2543;DHT22;1116;51.502;7.414;2022-12-18T11:41:05;0.90;82.20
2543;DHT22;1116;51.502;7.414;2022-12-18T11:43:42;0.90;76.40
2543;DHT22;1116;51.502;7.414;2022-12-18T11:46:23;1.10;56.60
2543;DHT22;1116;51.502;7.414;2022-12-18T11:48:59;0.70;49.40
2543;DHT22;1116;51.502;7.414;2022-12-18T11:51:34;1.10;41.40
2543;DHT22;1116;51.502;7.414;2022-12-18T11:54:13;1.70;23.10
2543;DHT22;1116;51.502;7.414;2022-12-18T11:59:55;1.70;16.40
2543;DHT22;1116;51.502;7.414;2022-12-18T12:02:46;1.90;7.10
2543;DHT22;1116;51.502;7.414;2022-12-18T12:05:37;2.00;12.70
2543;DHT22;1116;51.502;7.414;2022-12-18T12:08:15;2.10;15.70
2543;DHT22;1116;51.502;7.414;2022-12-18T12:11:00;2.20;16.70
2543;DHT22;1116;51.502;7.414;2022-12-18T12:13:44;2.30;16.30
2543;DHT22;1116;51.502;7.414;2022-12-18T12:16:21;2.30;19.30
2543;DHT22;1116;51.502;7.414;2022-12-18T12:19:03;2.10;19.30
2543;DHT22;1116;51.502;7.414;2022-12-18T12:21:40;1.90;20.50
2543;DHT22;1116;51.502;7.414;2022-12-18T12:24:26;1.80;17.50
2543;DHT22;1116;51.502;7.414;2022-12-18T12:27:09;2.20;21.00
2543;DHT22;1116;51.502;7.414;2022-12-18T12:29:48;2.30;23.80
2543;DHT22;1116;51.502;7.414;2022-12-18T12:32:31;2.20;21.70
2543;DHT22;1116;51.502;7.414;2022-12-18T12:35:16;2.20;22.20
2543;DHT22;1116;51.502;7.414;2022-12-18T12:38:00;2.20;23.60
2543;DHT22;1116;51.502;7.414;2022-12-18T12:40:38;2.10;24.70
2543;DHT22;1116;51.502;7.414;2022-12-18T12:43:33;2.20;27.10
2543;DHT22;1116;51.502;7.414;2022-12-18T12:46:10;2.40;27.30
2543;DHT22;1116;51.502;7.414;2022-12-18T12:48:45;2.10;27.10
2543;DHT22;1116;51.502;7.414;2022-12-18T12:51:19;2.10;27.60
2543;DHT22;1116;51.502;7.414;2022-12-18T12:53:52;2.10;28.40
2543;DHT22;1116;51.502;7.414;2022-12-18T12:56:34;2.10;29.00
2543;DHT22;1116;51.502;7.414;2022-12-18T12:59:13;2.10;27.80
2543;DHT22;1116;51.502;7.414;2022-12-18T13:01:53;2.20;26.50
2543;DHT22;1116;51.502;7.414;2022-12-18T13:04:34;2.20;26.30
2543;DHT22;1116;51.502;7.414;2022-12-18T13:07:15;2.20;24.70
2543;DHT22;1116;51.502;7.414;2022-12-18T13:12:57;2.20;28.10
2543;DHT22;1116;51.502;7.414;2022-12-18T13:15:35;2.30;31.30
2543;DHT22;1116;51.502;7.414;2022-12-18T13:18:16;2.30;30.10
2543;DHT22;1116;51.502;7.414;2022-12-18T13:20:50;2.30;31.40
2543;DHT22;1116;51.502;7.414;2022-12-18T13:26:29;2.20;31.50
2543;DHT22;1116;51.502;7.414;2022-12-18T13:29:02;2.10;31.90
2543;DHT22;1116;51.502;7.414;2022-12-18T13:32:01;2.10;29.50
2543;DHT22;1116;51.502;7.414;2022-12-18T13:34:32;2.00;23.00
2543;DHT22;1116;51.502;7.414;2022-12-18T13:43:32;2.60;1.50
2543;DHT22;1116;51.502;7.414;2022-12-18T13:46:17;2.90;1.70
2543;DHT22;1116;51.502;7.414;2022-12-18T13:48:56;3.00;1.00
2543;DHT22;1116;51.502;7.414;2022-12-18T13:51:28;3.10;1.00
2543;DHT22;1116;51.502;7.414;2022-12-18T13:54:05;3.10;1.00
2543;DHT22;1116;51.502;7.414;2022-12-18T13:56:44;3.10;1.00
2543;DHT22;1116;51.502;7.414;2022-12-18T13:59:18;3.20;1.00
2543;DHT22;1116;51.502;7.414;2022-12-18T14:01:54;3.40;1.00
2543;DHT22;1116;51.502;7.414;2022-12-18T14:04:33;3.20;1.00
2543;DHT22;1116;51.502;7.414;2022-12-18T14:07:10;3.20;1.00
2543;DHT22;1116;51.502;7.414;2022-12-18T14:09:46;3.20;1.00
2543;DHT22;1116;51.502;7.414;2022-12-18T14:12:39;3.60;1.00
2543;DHT22;1116;51.502;7.414;2022-12-18T14:15:27;3.30;1.00
2543;DHT22;1116;51.502;7.414;2022-12-18T14:18:03;3.10;1.00
2543;DHT22;1116;51.502;7.414;2022-12-18T14:20:44;3.10;1.00
2543;DHT22;1116;51.502;7.414;2022-12-18T14:23:28;3.10;1.00
2543;DHT22;1116;51.502;7.414;2022-12-18T14:25:59;3.20;1.00
2543;DHT22;1116;51.502;7.414;2022-12-18T14:28:33;3.20;1.00
2543;DHT22;1116;51.502;7.414;2022-12-18T14:31:04;3.20;1.00
2543;DHT22;1116;51.502;7.414;2022-12-18T14:33:38;3.10;1.00
2543;DHT22;1116;51.502;7.414;2022-12-18T14:36:17;3.50;1.00
2543;DHT22;1116;51.502;7.414;2022-12-18T14:38:51;3.00;1.00
2543;DHT22;1116;51.502;7.414;2022-12-18T14:41:22;3.00;1.00
2543;DHT22;1116;51.502;7.414;2022-12-18T14:43:54;3.20;1.00
2543;DHT22;1116;51.502;7.414;2022-12-18T14:46:32;3.00;1.00
2543;DHT22;1116;51.502;7.414;2022-12-18T14:49:18;3.20;1.00
2543;DHT22;1116;51.502;7.414;2022-12-18T14:51:56;3.00;1.00
2543;DHT22;1116;51.502;7.414;2022-12-18T14:54:28;3.00;1.00
2543;DHT22;1116;51.502;7.414;2022-12-18T14:57:01;2.90;1.00
2543;DHT22;1116;51.502;7.414;2022-12-18T14:59:33;2.80;1.00
2543;DHT22;1116;51.502;7.414;2022-12-18T15:02:12;2.80;1.00
2543;DHT22;1116;51.502;7.414;2022-12-18T15:04:46;2.80;1.00
2543;DHT22;1116;51.502;7.414;2022-12-18T15:07:21;2.80;1.00
2543;DHT22;1116;51.502;7.414;2022-12-18T15:10:07;2.70;1.00
2543;DHT22;1116;51.502;7.414;2022-12-18T15:12:41;2.70;1.00
2543;DHT22;1116;51.502;7.414;2022-12-18T15:18:15;2.70;1.00
2543;DHT22;1116;51.502;7.414;2022-12-18T15:20:49;2.80;1.00
2543;DHT22;1116;51.502;7.414;2022-12-18T15:23:25;2.70;1.00
2543;DHT22;1116;51.502;7.414;2022-12-18T15:25:58;2.70;1.00
2543;DHT22;1116;51.502;7.414;2022-12-18T15:28:33;2.80;1.00
2543;DHT22;1116;51.502;7.414;2022-12-18T15:31:24;2.80;1.00
2543;DHT22;1116;51.502;7.414;2022-12-18T15:34:10;2.80;1.00
2543;DHT22;1116;51.502;7.414;2022-12-18T15:36:43;3.00;1.00
2543;DHT22;1116;51.502;7.414;2022-12-18T15:39:16;2.80;1.00
2543;DHT22;1116;51.502;7.414;2022-12-18T15:41:48;2.80;1.00
2543;DHT22;1116;51.502;7.414;2022-12-18T15:44:32;2.80;1.00
2543;DHT22;1116;51.502;7.414;2022-12-18T15:53:15;2.70;1.00
2543;DHT22;1116;51.502;7.414;2022-12-18T15:55:49;2.70;1.00
2543;DHT22;1116;51.502;7.414;2022-12-18T15:58:32;2.70;1.00
2543;DHT22;1116;51.502;7.414;2022-12-18T16:01:08;2.60;1.00
2543;DHT22;1116;51.502;7.414;2022-12-18T16:03:40;2.60;1.00
2543;DHT22;1116;51.502;7.414;2022-12-18T16:06:12;2.60;1.00
2543;DHT22;1116;51.502;7.414;2022-12-18T16:08:42;2.50;1.00
2543;DHT22;1116;51.502;7.414;2022-12-18T16:11:22;2.50;1.00
2543;DHT22;1116;51.502;7.414;2022-12-18T16:14:10;2.50;1.00
2543;DHT22;1116;51.502;7.414;2022-12-18T16:16:43;2.50;1.00
2543;DHT22;1116;51.502;7.414;2022-12-18T16:19:14;2.60;1.00
2543;DHT22;1116;51.502;7.414;2022-12-18T16:21:46;2.50;1.00
2543;DHT22;1116;51.502;7.414;2022-12-18T16:24:20;2.50;1.00
2543;DHT22;1116;51.502;7.414;2022-12-18T16:26:56;2.50;1.00
2543;DHT22;1116;51.502;7.414;2022-12-18T16:29:30;2.50;1.00
2543;DHT22;1116;51.502;7.414;2022-12-18T16:34:50;2.50;1.00
2543;DHT22;1116;51.502;7.414;2022-12-18T16:37:21;2.90;1.00
2543;DHT22;1116;51.502;7.414;2022-12-18T16:39:52;2.50;1.00
2543;DHT22;1116;51.502;7.414;2022-12-18T16:42:26;2.50;1.00
2543;DHT22;1116;51.502;7.414;2022-12-18T16:44:56;2.80;1.00
2543;DHT22;1116;51.502;7.414;2022-12-18T16:47:28;2.90;1.00
2543;DHT22;1116;51.502;7.414;2022-12-18T16:50:01;2.40;1.00
2543;DHT22;1116;51.502;7.414;2022-12-18T16:52:35;2.50;1.00
2543;DHT22;1116;51.502;7.414;2022-12-18T16:55:07;2.50;1.00
2543;DHT22;1116;51.502;7.414;2022-12-18T16:57:40;2.50;1.00
2543;DHT22;1116;51.502;7.414;2022-12-18T17:00:14;2.50;1.00
2543;DHT22;1116;51.502;7.414;2022-12-18T17:02:45;2.50;1.00
2543;DHT22;1116;51.502;7.414;2022-12-18T17:05:16;2.60;1.00
2543;DHT22;1116;51.502;7.414;2022-12-18T17:07:47;2.80;1.30
2543;DHT22;1116;51.502;7.414;2022-12-18T17:10:18;2.90;1.80
2543;DHT22;1116;51.502;7.414;2022-12-18T17:12:58;2.60;1.60
2543;DHT22;1116;51.502;7.414;2022-12-18T17:15:34;2.60;1.70
2543;DHT22;1116;51.502;7.414;2022-12-18T17:18:05;2.70;2.50
2543;DHT22;1116;51.502;7.414;2022-12-18T17:20:36;2.70;3.30
2543;DHT22;1116;51.502;7.414;2022-12-18T17:23:06;2.60;4.10
2543;DHT22;1116;51.502;7.414;2022-12-18T17:25:38;2.50;4.20
2543;DHT22;1116;51.502;7.414;2022-12-18T17:28:13;2.50;5.10
2543;DHT22;1116;51.502;7.414;2022-12-18T17:30:44;2.50;4.70
2543;DHT22;1116;51.502;7.414;2022-12-18T17:33:15;2.60;6.40
2543;DHT22;1116;51.502;7.414;2022-12-18T17:35:45;2.40;7.10
2543;DHT22;1116;51.502;7.414;2022-12-18T17:38:17;2.30;7.00
2543;DHT22;1116;51.502;7.414;2022-12-18T17:40:48;2.30;9.10
2543;DHT22;1116;51.502;7.414;2022-12-18T17:43:22;2.20;8.80
2543;DHT22;1116;51.502;7.414;2022-12-18T17:45:53;2.30;9.80
2543;DHT22;1116;51.502;7.414;2022-12-18T17:48:25;2.40;9.70
2543;DHT22;1116;51.502;7.414;2022-12-18T17:51:00;2.30;10.60
2543;DHT22;1116;51.502;7.414;2022-12-18T17:53:31;2.30;10.30
2543;DHT22;1116;51.502;7.414;2022-12-18T17:56:02;2.40;10.20
2543;DHT22;1116;51.502;7.414;2022-12-18T17:58:38;2.40;10.40
2543;DHT22;1116;51.502;7.414;2022-12-18T18:01:10;2.40;11.00
2543;DHT22;1116;51.502;7.414;2022-12-18T18:06:31;2.40;11.20
2543;DHT22;1116;51.502;7.414;2022-12-18T18:09:05;2.40;10.50
2543;DHT22;1116;51.502;7.414;2022-12-18T18:11:43;2.40;11.60
2543;DHT22;1116;51.502;7.414;2022-12-18T18:14:29;2.50;11.70
2543;DHT22;1116;51.502;7.414;2022-12-18T18:17:02;2.50;11.60
2543;DHT22;1116;51.502;7.414;2022-12-18T18:19:33;2.50;11.70
2543;DHT22;1116;51.502;7.414;2022-12-18T18:22:06;2.40;12.00
2543;DHT22;1116;51.502;7.414;2022-12-18T18:24:37;2.30;12.70
2543;DHT22;1116;51.502;7.414;2022-12-18T18:27:13;2.30;12.60
2543;DHT22;1116;51.502;7.414;2022-12-18T18:29:49;2.40;13.00
2543;DHT22;1116;51.502;7.414;2022-12-18T18:32:20;2.40;13.30
2543;DHT22;1116;51.502;7.414;2022-12-18T18:34:53;2.80;11.10
2543;DHT22;1116;51.502;7.414;2022-12-18T18:37:26;2.20;11.70
2543;DHT22;1116;51.502;7.414;2022-12-18T18:39:57;2.40;11.70
2543;DHT22;1116;51.502;7.414;2022-12-18T18:42:28;2.40;10.90
2543;DHT22;1116;51.502;7.414;2022-12-18T18:45:02;2.30;10.70
2543;DHT22;1116;51.502;7.414;2022-12-18T18:50:24;2.30;10.40
2543;DHT22;1116;51.502;7.414;2022-12-18T18:52:57;2.30;10.30
2543;DHT22;1116;51.502;7.414;2022-12-18T18:55:32;2.40;10.50
2543;DHT22;1116;51.502;7.414;2022-12-18T18:58:05;2.40;10.40
2543;DHT22;1116;51.502;7.414;2022-12-18T19:00:39;2.40;10.50
2543;DHT22;1116;51.502;7.414;2022-12-18T19:03:10;2.70;9.50
2543;DHT22;1116;51.502;7.414;2022-12-18T19:05:41;2.40;10.40
2543;DHT22;1116;51.502;7.414;2022-12-18T19:08:14;2.40;10.40
2543;DHT22;1116;51.502;7.414;2022-12-18T19:10:45;2.40;9.50
2543;DHT22;1116;51.502;7.414;2022-12-18T19:13:26;2.40;9.50
2543;DHT22;1116;51.502;7.414;2022-12-18T19:16:06;2.30;9.60
2543;DHT22;1116;51.502;7.414;2022-12-18T19:18:38;2.90;9.80
2543;DHT22;1116;51.502;7.414;2022-12-18T19:21:12;2.50;10.40
2543;DHT22;1116;51.502;7.414;2022-12-18T19:29:30;2.50;9.60
2543;DHT22;1116;51.502;7.414;2022-12-18T19:32:03;2.50;9.60
2543;DHT22;1116;51.502;7.414;2022-12-18T19:34:41;2.50;9.00
2543;DHT22;1116;51.502;7.414;2022-12-18T19:37:39;2.40;9.00
2543;DHT22;1116;51.502;7.414;2022-12-18T19:40:10;2.50;9.30
2543;DHT22;1116;51.502;7.414;2022-12-18T19:42:41;2.50;8.90
2543;DHT22;1116;51.502;7.414;2022-12-18T19:45:14;2.50;7.50
2543;DHT22;1116;51.502;7.414;2022-12-18T19:47:47;2.50;7.00
2543;DHT22;1116;51.502;7.414;2022-12-18T19:50:18;2.50;7.20
2543;DHT22;1116;51.502;7.414;2022-12-18T19:52:49;2.60;7.30
2543;DHT22;1116;51.502;7.414;2022-12-18T19:55:20;2.50;7.30
2543;DHT22;1116;51.502;7.414;2022-12-18T19:57:51;2.60;6.80
2543;DHT22;1116;51.502;7.414;2022-12-18T20:00:21;2.50;6.50
2543;DHT22;1116;51.502;7.414;2022-12-18T20:02:55;2.60;5.10
2543;DHT22;1116;51.502;7.414;2022-12-18T20:05:39;2.60;5.20
2543;DHT22;1116;51.502;7.414;2022-12-18T20:08:12;2.30;5.90
2543;DHT22;1116;51.502;7.414;2022-12-18T20:10:42;2.70;5.60
2543;DHT22;1116;51.502;7.414;2022-12-18T20:13:16;2.60;5.00
2543;DHT22;1116;51.502;7.414;2022-12-18T20:15:52;2.70;6.00
2543;DHT22;1116;51.502;7.414;2022-12-18T20:18:30;2.50;5.80
2543;DHT22;1116;51.502;7.414;2022-12-18T20:21:02;2.70;4.90
2543;DHT22;1116;51.502;7.414;2022-12-18T20:23:41;2.60;5.40
2543;DHT22;1116;51.502;7.414;2022-12-18T20:26:16;3.00;6.70
2543;DHT22;1116;51.502;7.414;2022-12-18T20:28:48;2.60;4.00
2543;DHT22;1116;51.502;7.414;2022-12-18T20:31:19;2.70;5.50
2543;DHT22;1116;51.502;7.414;2022-12-18T20:33:54;2.60;6.00
2543;DHT22;1116;51.502;7.414;2022-12-18T20:36:30;2.60;5.90
2543;DHT22;1116;51.502;7.414;2022-12-18T20:39:07;2.70;5.10
2543;DHT22;1116;51.502;7.414;2022-12-18T20:41:42;2.60;5.50
2543;DHT22;1116;51.502;7.414;2022-12-18T20:44:16;2.60;5.20
2543;DHT22;1116;51.502;7.414;2022-12-18T20:46:54;2.70;5.40
2543;DHT22;1116;51.502;7.414;2022-12-18T20:49:32;2.70;5.50
2543;DHT22;1116;51.502;7.414;2022-12-18T20:52:07;2.70;6.00
2543;DHT22;1116;51.502;7.414;2022-12-18T20:54:38;3.00;6.10
2543;DHT22;1116;51.502;7.414;2022-12-18T20:57:08;2.80;5.50
2543;DHT22;1116;51.502;7.414;2022-12-18T20:59:39;2.80;6.00
2543;DHT22;1116;51.502;7.414;2022-12-18T21:02:15;2.80;6.60
2543;DHT22;1116;51.502;7.414;2022-12-18T21:04:49;2.80;6.00
2543;DHT22;1116;51.502;7.414;2022-12-18T21:07:21;2.90;7.10
2543;DHT22;1116;51.502;7.414;2022-12-18T21:09:54;2.90;7.50
2543;DHT22;1116;51.502;7.414;2022-12-18T21:12:24;2.90;7.30
2543;DHT22;1116;51.502;7.414;2022-12-18T21:15:15;3.10;8.10
2543;DHT22;1116;51.502;7.414;2022-12-18T21:17:52;2.90;9.20
2543;DHT22;1116;51.502;7.414;2022-12-18T21:20:25;2.90;10.50
2543;DHT22;1116;51.502;7.414;2022-12-18T21:22:56;3.10;9.70
2543;DHT22;1116;51.502;7.414;2022-12-18T21:25:43;3.00;10.70
2543;DHT22;1116;51.502;7.414;2022-12-18T21:28:20;3.00;12.00
2543;DHT22;1116;51.502;7.414;2022-12-18T21:30:51;3.00;10.70
2543;DHT22;1116;51.502;7.414;2022-12-18T21:33:22;3.00;13.50
2543;DHT22;1116;51.502;7.414;2022-12-18T21:35:56;3.00;14.50
2543;DHT22;1116;51.502;7.414;2022-12-18T21:38:28;3.00;14.80
2543;DHT22;1116;51.502;7.414;2022-12-18T21:41:02;2.90;14.70
2543;DHT22;1116;51.502;7.414;2022-12-18T21:43:36;2.90;15.10
2543;DHT22;1116;51.502;7.414;2022-12-18T21:46:20;2.90;14.80
2543;DHT22;1116;51.502;7.414;2022-12-18T21:48:51;2.90;16.10
2543;DHT22;1116;51.502;7.414;2022-12-18T21:51:25;2.90;15.70
2543;DHT22;1116;51.502;7.414;2022-12-18T21:53:57;2.90;15.10
2543;DHT22;1116;51.502;7.414;2022-12-18T21:56:42;2.90;16.00
2543;DHT22;1116;51.502;7.414;2022-12-18T21:59:15;2.90;14.50
2543;DHT22;1116;51.502;7.414;2022-12-18T22:01:49;2.90;14.30
2543;DHT22;1116;51.502;7.414;2022-12-18T22:04:24;2.90;14.10
2543;DHT22;1116;51.502;7.414;2022-12-18T22:06:59;3.10;12.70
2543;DHT22;1116;51.502;7.414;2022-12-18T22:09:31;3.00;15.00
2543;DHT22;1116;51.502;7.414;2022-12-18T22:12:03;3.00;12.40
2543;DHT22;1116;51.502;7.414;2022-12-18T22:14:34;3.00;13.70
2543;DHT22;1116;51.502;7.414;2022-12-18T22:17:05;3.00;13.60
2543;DHT22;1116;51.502;7.414;2022-12-18T22:19:38;3.10;13.70
2543;DHT22;1116;51.502;7.414;2022-12-18T22:22:13;3.10;12.80
2543;DHT22;1116;51.502;7.414;2022-12-18T22:24:43;3.10;12.50
2543;DHT22;1116;51.502;7.414;2022-12-18T22:27:14;3.10;12.80
2543;DHT22;1116;51.502;7.414;2022-12-18T22:29:45;3.10;13.80
2543;DHT22;1116;51.502;7.414;2022-12-18T22:32:29;3.10;12.70
2543;DHT22;1116;51.502;7.414;2022-12-18T22:37:45;3.10;16.00
2543;DHT22;1116;51.502;7.414;2022-12-18T22:40:18;3.00;14.90
2543;DHT22;1116;51.502;7.414;2022-12-18T22:42:53;3.00;16.20
2543;DHT22;1116;51.502;7.414;2022-12-18T22:45:24;3.00;16.70
2543;DHT22;1116;51.502;7.414;2022-12-18T22:47:57;2.90;16.80
2543;DHT22;1116;51.502;7.414;2022-12-18T22:50:27;2.90;18.00
2543;DHT22;1116;51.502;7.414;2022-12-18T22:53:04;3.00;17.70
2543;DHT22;1116;51.502;7.414;2022-12-18T22:55:35;3.00;19.40
2543;DHT22;1116;51.502;7.414;2022-12-18T22:58:11;3.00;18.60
2543;DHT22;1116;51.502;7.414;2022-12-18T23:00:42;3.00;20.30
2543;DHT22;1116;51.502;7.414;2022-12-18T23:03:13;3.10;20.60
2543;DHT22;1116;51.502;7.414;2022-12-18T23:06:01;3.10;22.30
2543;DHT22;1116;51.502;7.414;2022-12-18T23:08:35;3.10;23.90
2543;DHT22;1116;51.502;7.414;2022-12-18T23:11:07;3.00;24.70
2543;DHT22;1116;51.502;7.414;2022-12-18T23:13:38;3.00;26.00
2543;DHT22;1116;51.502;7.414;2022-12-18T23:16:12;3.00;25.30
2543;DHT22;1116;51.502;7.414;2022-12-18T23:21:51;3.00;28.10
2543;DHT22;1116;51.502;7.414;2022-12-18T23:24:27;3.00;29.30
2543;DHT22;1116;51.502;7.414;2022-12-18T23:26:59;3.00;30.70
2543;DHT22;1116;51.502;7.414;2022-12-18T23:29:35;3.00;30.30
2543;DHT22;1116;51.502;7.414;2022-12-18T23:32:06;3.00;31.90
2543;DHT22;1116;51.502;7.414;2022-12-18T23:34:38;2.90;34.60
2543;DHT22;1116;51.502;7.414;2022-12-18T23:37:08;2.90;34.40
2543;DHT22;1116;51.502;7.414;2022-12-18T23:39:42;2.90;36.80
2543;DHT22;1116;51.502;7.414;2022-12-18T23:42:14;2.90;36.20
2543;DHT22;1116;51.502;7.414;2022-12-18T23:44:47;2.90;37.30
2543;DHT22;1116;51.502;7.414;2022-12-18T23:47:18;2.90;37.40
2543;DHT22;1116;51.502;7.414;2022-12-18T23:49:49;2.90;38.80
2543;DHT22;1116;51.502;7.414;2022-12-18T23:52:21;2.90;38.70
2543;DHT22;1116;51.502;7.414;2022-12-18T23:54:54;2.50;42.60
2543;DHT22;1116;51.502;7.414;2022-12-18T23:57:25;2.80;44.80
2543;DHT22;1116;51.502;7.414;2022-12-18T23:59:58;2.80;44.60
